createdAt,value
2023-01-17T00:04:17.570Z,82.57
2023-01-17T00:10:40.561Z,82.71
2023-01-17T00:17:00.654Z,82.85
2023-01-17T00:23:23.572Z,83.68
2023-01-17T00:29:43.637Z,85.29
2023-01-17T00:36:06.642Z,84.69
2023-01-17T00:42:26.658Z,84.39
2023-01-17T00:48:49.654Z,84.98
2023-01-17T00:55:09.723Z,84.57
2023-01-17T01:01:32.725Z,84.29
2023-01-17T01:07:52.698Z,83.73
2023-01-17T01:14:15.665Z,83.24
2023-01-17T01:20:35.645Z,82.86
2023-01-17T01:26:58.600Z,82.09
2023-01-17T01:33:18.697Z,81.85
2023-01-17T01:39:41.643Z,81.64
2023-01-17T01:46:01.676Z,81.05
2023-01-17T01:52:24.721Z,80.5
2023-01-17T01:58:44.856Z,80.83
2023-01-17T02:05:07.648Z,81.05
2023-01-17T02:11:27.701Z,80.94
2023-01-17T02:17:50.583Z,80.98
2023-01-17T02:24:10.571Z,81.21
2023-01-17T02:30:33.630Z,81.47
2023-01-17T02:36:53.639Z,81.77
2023-01-17T02:43:16.635Z,81.75
2023-01-17T02:49:36.613Z,81.71
2023-01-17T02:55:59.692Z,81.1
2023-01-17T03:02:19.759Z,81.19
2023-01-17T03:08:42.596Z,81.52
2023-01-17T03:15:02.613Z,81.45
2023-01-17T03:21:25.576Z,79.12
2023-01-17T03:27:45.645Z,78.72
2023-01-17T03:34:08.629Z,78.29
2023-01-17T03:40:28.626Z,78.52
2023-01-17T03:46:51.689Z,78.32
2023-01-17T03:53:11.583Z,77.79
2023-01-17T03:59:34.642Z,78.11
2023-01-17T04:21:43.611Z,78
2023-01-17T04:28:06.597Z,77.08
2023-01-17T04:34:26.577Z,76.56
2023-01-17T04:40:49.623Z,76.25
2023-01-17T04:47:09.592Z,76.78
2023-01-17T04:53:32.570Z,77.01
2023-01-17T04:59:52.636Z,76.74
2023-01-17T05:06:15.590Z,77.03
2023-01-17T05:12:35.575Z,76.23
2023-01-17T05:18:58.641Z,76.73
2023-01-17T05:25:18.591Z,76.72
2023-01-17T05:31:41.604Z,76.58
2023-01-17T05:38:01.651Z,75.65
2023-01-17T05:44:24.639Z,75.79
2023-01-17T05:50:44.565Z,76.13
2023-01-17T05:57:07.653Z,76.38
2023-01-17T06:03:27.589Z,76.43
2023-01-17T06:09:50.610Z,76.64
2023-01-17T06:16:10.765Z,76
2023-01-17T06:22:33.562Z,76.38
2023-01-17T06:28:53.670Z,76.07
2023-01-17T06:35:16.601Z,75.51
2023-01-17T06:41:36.603Z,75.77
2023-01-17T06:47:59.672Z,76.05
2023-01-17T06:54:19.654Z,75.54
2023-01-17T07:00:42.658Z,76.12
2023-01-17T07:07:02.650Z,76.19
2023-01-17T07:13:25.586Z,76.65
2023-01-17T07:19:45.680Z,76.36
2023-01-17T07:26:08.567Z,76.34
2023-01-17T07:32:28.663Z,75.26
2023-01-17T07:38:51.593Z,75.53
2023-01-17T07:45:11.584Z,75.82
2023-01-17T07:51:34.675Z,77.43
2023-01-17T07:57:54.606Z,77.34
2023-01-17T08:04:17.589Z,78.95
2023-01-17T08:10:37.713Z,80.18
2023-01-17T08:17:00.566Z,79.76
2023-01-17T08:23:20.678Z,79.26
2023-01-17T08:29:43.592Z,79.35
2023-01-17T08:36:03.661Z,78.09
2023-01-17T08:42:26.610Z,77.74
2023-01-17T08:48:46.620Z,77.86
2023-01-17T08:55:09.629Z,75.05
2023-01-17T09:01:29.695Z,75.12
2023-01-17T09:17:58.499Z,73.03
2023-01-17T09:24:18.576Z,72.51
2023-01-17T09:30:41.643Z,72.6
2023-01-17T09:37:01.635Z,71.9
2023-01-17T09:43:24.600Z,70.39
2023-01-17T09:49:44.957Z,69.95
2023-01-17T09:56:07.667Z,69.62
2023-01-17T10:02:27.748Z,69.01
2023-01-17T10:08:50.565Z,68.89
2023-01-17T10:15:10.651Z,66.46
2023-01-17T10:21:33.623Z,67.1
2023-01-17T10:27:53.649Z,67.14
2023-01-17T10:34:16.639Z,65.52
2023-01-17T10:40:36.604Z,66.18
2023-01-17T10:46:59.601Z,65.53
2023-01-17T10:53:19.693Z,65.39
2023-01-17T10:59:42.597Z,64.17
2023-01-17T11:06:02.579Z,63.9
2023-01-17T11:12:25.627Z,61.94
2023-01-17T11:18:45.593Z,63.14
2023-01-17T11:25:08.598Z,62.42
2023-01-17T11:31:28.609Z,60.71
2023-01-17T11:37:51.580Z,60.21
2023-01-17T11:44:11.595Z,58.24
2023-01-17T11:50:34.636Z,58.64
2023-01-17T11:56:54.669Z,60.45
2023-01-17T12:03:17.607Z,57.51
2023-01-17T12:09:37.924Z,58.15
2023-01-17T12:16:00.725Z,56.3
2023-01-17T12:22:20.583Z,53.3
2023-01-17T12:28:43.615Z,55.13
2023-01-17T12:35:03.574Z,53.4
2023-01-17T12:41:26.813Z,50.21
2023-01-17T12:47:46.599Z,55.4
2023-01-17T12:54:09.611Z,53.58
2023-01-17T13:00:29.718Z,54.66
2023-01-17T13:06:52.613Z,55.43
2023-01-17T13:13:12.720Z,52.34
2023-01-17T13:19:35.579Z,53.13
2023-01-17T13:25:55.629Z,52.51
2023-01-17T13:32:18.624Z,52.51
2023-01-17T13:38:38.574Z,49.7
2023-01-17T13:45:01.639Z,51.11
2023-01-17T13:51:21.574Z,51.69
2023-01-17T13:57:44.599Z,52.09
2023-01-17T14:04:04.600Z,53.77
2023-01-17T14:10:27.575Z,54.16
2023-01-17T14:26:52.528Z,54.38
2023-01-17T14:33:12.558Z,55.26
2023-01-17T14:39:35.589Z,58.1
2023-01-17T14:45:55.657Z,57.13
2023-01-17T14:52:18.613Z,58.25
2023-01-17T14:58:38.624Z,58.47
2023-01-17T15:05:01.629Z,59.73
2023-01-17T15:11:21.640Z,61.26
2023-01-17T15:17:44.572Z,61.66
2023-01-17T15:24:04.761Z,61.74
2023-01-17T15:30:27.729Z,65.72
2023-01-17T15:36:47.649Z,64.77
2023-01-17T15:43:11.749Z,67.12
2023-01-17T15:49:31.735Z,67.32
2023-01-17T15:55:54.597Z,69.91
2023-01-17T16:02:14.672Z,69.62
2023-01-17T16:08:38.836Z,70.6
2023-01-17T16:15:11.073Z,70.86
2023-01-17T16:21:20.653Z,72.37
2023-01-17T16:27:40.651Z,71.98
2023-01-17T16:34:03.825Z,73
2023-01-17T16:40:23.583Z,74.52
2023-01-17T16:46:46.657Z,74.41
2023-01-17T16:53:06.591Z,74.39
2023-01-17T16:59:39.625Z,74.52
2023-01-17T17:05:49.637Z,74.56
2023-01-17T17:12:13.061Z,74.94
2023-01-17T17:18:33.662Z,75.17
2023-01-17T17:24:56.664Z,75.3
2023-01-17T17:31:16.677Z,75.48
2023-01-17T17:37:39.709Z,76.05
2023-01-17T17:43:59.749Z,76.97
2023-01-17T17:50:22.573Z,77.99
2023-01-17T17:56:42.611Z,77.4
2023-01-17T18:03:05.595Z,78.12
2023-01-17T18:09:25.726Z,77.87
2023-01-17T18:15:48.673Z,78.17
2023-01-17T18:22:08.566Z,78.66
2023-01-17T18:28:31.739Z,79.36
2023-01-17T18:34:51.688Z,80.15
2023-01-17T18:41:14.588Z,80.51
2023-01-17T18:47:34.887Z,80.11
2023-01-17T18:53:57.652Z,80.91
2023-01-17T19:00:17.646Z,79.8
2023-01-17T19:06:40.636Z,80.25
2023-01-17T19:22:11.520Z,81.08
2023-01-17T19:28:31.580Z,81.16
2023-01-17T19:34:54.555Z,80.79
2023-01-17T19:41:15.016Z,81.41
2023-01-17T19:47:37.566Z,81.31
2023-01-17T19:53:57.575Z,81.46
2023-01-17T20:00:20.596Z,81.86
2023-01-17T20:06:40.782Z,81.92
2023-01-17T20:13:03.726Z,81.99
2023-01-17T20:19:23.648Z,82.04
2023-01-17T20:25:46.687Z,81.39
2023-01-17T20:32:06.619Z,81.44
2023-01-17T20:38:29.726Z,82.79
2023-01-17T20:44:49.577Z,83.49
2023-01-17T20:51:12.564Z,82.81
2023-01-17T20:57:32.589Z,83.04
2023-01-17T21:03:55.623Z,82.83
2023-01-17T21:10:15.689Z,83.23
2023-01-17T21:16:38.828Z,82.44
2023-01-17T21:22:58.600Z,82.89
2023-01-17T21:29:21.685Z,82.71
2023-01-17T21:35:41.605Z,83.26
2023-01-17T21:42:04.563Z,83
2023-01-17T21:48:24.596Z,83.2
2023-01-17T21:54:47.601Z,83.14
2023-01-17T22:01:07.757Z,83.03
2023-01-17T22:07:30.594Z,83.15
2023-01-17T22:13:50.608Z,84
2023-01-17T22:20:14.567Z,84.21
2023-01-17T22:26:34.631Z,84.07
2023-01-17T22:32:58.369Z,83.81
2023-01-17T22:39:17.582Z,84.11
2023-01-17T22:45:40.618Z,83.77
2023-01-17T22:52:00.682Z,83.76
2023-01-17T22:58:23.599Z,83.99
2023-01-17T23:21:20.609Z,83.88
2023-01-17T23:27:40.562Z,83.54
2023-01-17T23:34:03.648Z,83.26
2023-01-17T23:40:23.637Z,83.37
2023-01-17T23:46:46.606Z,84.08
2023-01-17T23:53:06.562Z,84.41
2023-01-17T23:59:29.620Z,83.83
